createdAt,value
2022-11-05T00:00:19.806Z,27.35
2022-11-05T00:05:50.887Z,30.88
2022-11-05T00:08:36.390Z,29.70
2022-11-05T00:13:48.692Z,26.90
2022-11-05T00:19:09.131Z,28.67
2022-11-05T00:21:57.937Z,28.75
2022-11-05T00:24:43.520Z,29.73
2022-11-05T00:29:38.110Z,28.08
2022-11-05T00:32:05.291Z,29.83
2022-11-05T00:34:32.132Z,31.77
2022-11-05T00:36:59.043Z,30.60
2022-11-05T00:39:25.999Z,33.95
2022-11-05T00:42:11.606Z,33.90
2022-11-05T00:44:57.331Z,28.08
2022-11-05T00:47:43.054Z,31.75
2022-11-05T00:50:10.951Z,32.22
2022-11-05T00:52:57.421Z,29.73
2022-11-05T00:55:30.649Z,31.52
2022-11-05T00:57:57.888Z,31.95
2022-11-05T01:00:26.871Z,32.25
2022-11-05T01:02:54.012Z,30.58
2022-11-05T01:05:21.019Z,31.60
2022-11-05T01:07:47.880Z,29.83
2022-11-05T01:10:15.025Z,32.58
2022-11-05T01:12:41.870Z,28.77
2022-11-05T01:15:09.558Z,31.27
2022-11-05T01:17:36.681Z,28.48
2022-11-05T01:20:04.317Z,32.55
2022-11-05T01:22:31.236Z,29.25
2022-11-05T01:24:58.107Z,32.17
2022-11-05T01:27:25.027Z,33.60
2022-11-05T01:29:51.861Z,33.55
2022-11-05T01:32:18.689Z,31.88
2022-11-05T01:34:45.531Z,34.15
2022-11-05T01:37:13.787Z,33.35
2022-11-05T01:39:40.714Z,35.95
2022-11-05T01:42:22.994Z,35.33
2022-11-05T01:44:59.934Z,37.92
2022-11-05T01:47:46.276Z,36.13
2022-11-05T01:50:18.885Z,34.90
2022-11-05T01:52:47.453Z,38.13
2022-11-05T01:55:20.989Z,37.42
2022-11-05T01:57:47.932Z,37.90
2022-11-05T02:00:16.722Z,39.90
2022-11-05T02:02:44.335Z,37.22
2022-11-05T02:05:12.757Z,36.67
2022-11-05T02:07:40.940Z,39.03
2022-11-05T02:10:18.006Z,41.95
2022-11-05T02:12:46.788Z,43.70
2022-11-05T02:15:16.159Z,43.63
2022-11-05T02:17:53.376Z,38.22
2022-11-05T02:21:16.862Z,40.28
2022-11-05T02:24:05.004Z,41.33
2022-11-05T02:26:34.879Z,43.22
2022-11-05T02:29:43.139Z,43.58
2022-11-05T02:32:12.799Z,41.33
2022-11-05T02:35:10.151Z,43.63
2022-11-05T02:37:44.965Z,45.15
2022-11-05T02:40:17.684Z,47.88
2022-11-05T02:43:06.000Z,45.67
2022-11-05T02:45:42.446Z,44.60
2022-11-05T02:48:15.366Z,48.53
2022-11-05T02:51:06.880Z,49.80
2022-11-05T02:53:42.722Z,48.83
2022-11-05T02:56:17.146Z,47.03
2022-11-05T02:58:44.026Z,48.92
2022-11-05T03:01:14.385Z,46.65
2022-11-05T03:03:46.059Z,49.15
2022-11-05T03:06:21.914Z,50.70
2022-11-05T03:09:10.182Z,54.38
2022-11-05T03:11:56.408Z,51.00
2022-11-05T03:14:54.081Z,51.58
2022-11-05T03:17:55.137Z,51.45
2022-11-05T03:20:26.573Z,51.25
2022-11-05T03:23:02.415Z,47.80
2022-11-05T03:25:32.195Z,52.38
2022-11-05T03:28:05.149Z,53.05
2022-11-05T03:30:35.692Z,48.15
2022-11-05T03:33:09.126Z,47.70
2022-11-05T03:35:40.514Z,52.90
2022-11-05T03:38:12.543Z,51.20
2022-11-05T03:40:42.818Z,47.72
2022-11-05T03:43:10.172Z,49.83
2022-11-05T03:45:44.348Z,50.97
2022-11-05T03:48:14.687Z,54.63
2022-11-05T03:50:56.043Z,55.20
2022-11-05T03:53:28.152Z,56.10
2022-11-05T03:55:59.342Z,55.58
2022-11-05T03:58:27.300Z,52.35
2022-11-05T04:00:54.291Z,50.75
2022-11-05T04:03:21.342Z,49.78
2022-11-05T04:06:08.655Z,49.35
2022-11-05T04:08:54.395Z,46.25
2022-11-05T04:11:39.743Z,47.10
2022-11-05T04:14:06.760Z,48.13
2022-11-05T04:16:52.010Z,49.25
2022-11-05T04:19:38.876Z,51.72
2022-11-05T04:22:24.344Z,55.63
2022-11-05T04:24:51.305Z,50.50
2022-11-05T04:27:18.241Z,46.30
2022-11-05T04:30:03.658Z,51.38
2022-11-05T04:32:30.483Z,49.05
2022-11-05T04:34:57.360Z,51.88
2022-11-05T04:37:24.242Z,53.15
2022-11-05T04:39:51.159Z,51.08
2022-11-05T04:42:18.012Z,48.90
2022-11-05T04:44:45.032Z,51.50
2022-11-05T04:47:11.960Z,48.80
2022-11-05T04:49:38.828Z,46.72
2022-11-05T04:52:05.806Z,47.15
2022-11-05T04:54:32.690Z,49.92
2022-11-05T04:56:59.631Z,50.42
2022-11-05T04:59:26.470Z,48.00
2022-11-05T05:01:53.578Z,49.00
2022-11-05T05:04:20.856Z,48.40
2022-11-05T05:06:47.734Z,47.28
2022-11-05T05:09:14.701Z,44.63
2022-11-05T05:11:41.552Z,45.30
2022-11-05T05:14:08.878Z,45.90
2022-11-05T05:16:35.730Z,45.33
2022-11-05T05:19:02.679Z,44.42
2022-11-05T05:21:41.811Z,42.05
2022-11-05T05:24:17.482Z,39.55
2022-11-05T05:26:46.688Z,39.25
2022-11-05T05:29:14.351Z,37.75
2022-11-05T05:31:42.221Z,38.40
2022-11-05T05:34:12.488Z,38.17
2022-11-05T05:36:39.486Z,39.58
2022-11-05T05:39:07.490Z,36.75
2022-11-05T05:41:34.598Z,33.80
2022-11-05T05:44:01.446Z,35.22
2022-11-05T05:46:28.317Z,36.53
2022-11-05T05:48:55.210Z,37.75
2022-11-05T05:51:22.082Z,34.83
2022-11-05T05:53:48.964Z,33.75
2022-11-05T05:56:19.325Z,35.95
2022-11-05T05:58:46.652Z,36.67
2022-11-05T06:01:19.382Z,37.72
2022-11-05T06:03:48.693Z,37.45
2022-11-05T06:06:19.841Z,37.55
2022-11-05T06:08:47.712Z,37.13
2022-11-05T06:11:15.092Z,37.97
2022-11-05T06:13:42.011Z,37.50
2022-11-05T06:16:10.133Z,36.17
2022-11-05T06:18:37.539Z,37.70
2022-11-05T06:21:13.429Z,36.90
2022-11-05T06:23:42.112Z,34.80
2022-11-05T06:26:11.819Z,37.38
2022-11-05T06:28:38.944Z,35.97
2022-11-05T06:31:06.311Z,36.15
2022-11-05T06:33:33.153Z,36.28
2022-11-05T06:36:01.797Z,36.08
2022-11-05T06:38:31.760Z,37.78
2022-11-05T06:40:59.849Z,36.70
2022-11-05T06:43:28.080Z,34.30
2022-11-05T06:45:56.122Z,33.88
2022-11-05T06:48:23.367Z,33.50
2022-11-05T06:50:50.286Z,33.58
2022-11-05T06:53:17.942Z,31.63
2022-11-05T06:55:45.091Z,33.50
2022-11-05T06:58:11.979Z,31.10
2022-11-05T07:00:38.837Z,32.78
2022-11-05T07:03:07.594Z,29.67
2022-11-05T07:05:37.464Z,28.73
2022-11-05T07:08:04.433Z,29.30
2022-11-05T07:10:31.329Z,30.50
2022-11-05T07:12:58.191Z,28.52
2022-11-05T07:15:25.112Z,28.15
2022-11-05T07:17:57.716Z,27.98
2022-11-05T07:20:28.223Z,26.73
2022-11-05T07:23:05.701Z,27.90
2022-11-05T07:25:33.985Z,27.13
2022-11-05T07:28:01.850Z,27.67
2022-11-05T07:30:31.069Z,26.55
2022-11-05T07:32:58.176Z,26.80
2022-11-05T07:35:25.367Z,23.52
2022-11-05T07:37:56.377Z,25.30
2022-11-05T07:40:25.804Z,25.65
2022-11-05T07:42:58.053Z,24.00
2022-11-05T07:45:26.336Z,24.45
2022-11-05T07:47:55.505Z,24.42
2022-11-05T07:50:24.334Z,24.27
2022-11-05T07:52:51.691Z,23.17
2022-11-05T07:55:20.924Z,24.02
2022-11-05T07:57:50.003Z,22.35
2022-11-05T08:00:24.061Z,25.40
2022-11-05T08:03:12.095Z,24.25
2022-11-05T08:05:44.627Z,24.00
2022-11-05T08:08:16.579Z,23.52
2022-11-05T08:10:43.650Z,21.98
2022-11-05T08:13:11.889Z,20.67
2022-11-05T08:15:39.784Z,21.30
2022-11-05T08:18:09.060Z,21.55
2022-11-05T08:20:37.154Z,23.48
2022-11-05T08:23:04.899Z,21.75
2022-11-05T08:25:32.384Z,21.50
2022-11-05T08:28:07.614Z,22.33
2022-11-05T08:30:35.463Z,21.50
2022-11-05T08:33:08.934Z,20.08
2022-11-05T08:35:37.645Z,20.13
2022-11-05T08:38:06.662Z,20.17
2022-11-05T08:40:35.361Z,19.85
2022-11-05T08:43:04.782Z,21.38
2022-11-05T08:45:32.097Z,21.63
2022-11-05T08:48:04.027Z,18.88
2022-11-05T08:50:31.641Z,18.95
2022-11-05T08:52:58.507Z,18.70
2022-11-05T08:55:25.916Z,16.05
2022-11-05T08:57:57.411Z,17.80
2022-11-05T09:00:25.433Z,16.65
2022-11-05T09:02:52.291Z,18.33
2022-11-05T09:05:19.468Z,17.95
2022-11-05T09:07:46.941Z,18.08
2022-11-05T09:10:13.888Z,17.92
2022-11-05T09:12:40.828Z,19.60
2022-11-05T09:15:08.238Z,19.77
2022-11-05T09:17:35.252Z,18.58
2022-11-05T09:20:03.820Z,20.23
2022-11-05T09:22:30.926Z,19.17
2022-11-05T09:24:57.801Z,19.85
2022-11-05T09:27:24.649Z,18.13
2022-11-05T09:29:51.534Z,16.88
2022-11-05T09:32:19.447Z,18.08
2022-11-05T09:34:48.579Z,16.95
2022-11-05T09:37:15.671Z,16.00
2022-11-05T09:39:42.534Z,16.77
2022-11-05T09:42:13.925Z,16.50
2022-11-05T09:44:52.466Z,15.35
2022-11-05T09:47:25.282Z,16.90
2022-11-05T09:49:54.878Z,17.55
2022-11-05T09:52:25.800Z,20.40
2022-11-05T09:54:54.382Z,17.75
2022-11-05T09:57:32.940Z,18.17
2022-11-05T10:00:04.645Z,18.25
2022-11-05T10:02:46.214Z,19.98
2022-11-05T10:05:14.957Z,19.23
2022-11-05T10:07:55.922Z,19.42
2022-11-05T10:10:28.701Z,20.35
2022-11-05T10:13:01.284Z,19.25
2022-11-05T10:15:43.254Z,19.77
2022-11-05T10:18:35.099Z,20.08
2022-11-05T10:21:02.418Z,20.75
2022-11-05T10:23:29.694Z,20.38
2022-11-05T10:26:07.808Z,18.55
2022-11-05T10:28:35.813Z,18.95
2022-11-05T10:31:06.432Z,18.00
2022-11-05T10:33:48.599Z,17.92
2022-11-05T10:36:22.630Z,19.48
2022-11-05T10:38:50.533Z,18.75
2022-11-05T10:41:32.782Z,18.20
2022-11-05T10:44:25.788Z,18.08
2022-11-05T10:47:10.758Z,18.30
2022-11-05T10:49:55.698Z,17.25
2022-11-05T10:54:58.791Z,17.15
2022-11-05T10:57:30.835Z,18.48
2022-11-05T11:00:16.183Z,18.25
2022-11-05T11:02:52.795Z,16.27
2022-11-05T11:05:27.862Z,17.80
2022-11-05T11:08:09.269Z,15.95
2022-11-05T11:10:50.234Z,17.95
2022-11-05T11:13:29.360Z,16.92
2022-11-05T11:16:14.883Z,17.50
2022-11-05T11:18:43.661Z,17.25
2022-11-05T11:21:17.755Z,17.02
2022-11-05T11:23:54.868Z,17.25
2022-11-05T11:26:24.615Z,16.70
2022-11-05T11:29:00.138Z,16.73
2022-11-05T11:31:30.667Z,15.57
2022-11-05T11:34:03.362Z,15.82
2022-11-05T11:36:41.458Z,15.98
2022-11-05T11:39:25.186Z,17.05
2022-11-05T11:41:56.219Z,17.35
2022-11-05T11:44:29.673Z,16.42
2022-11-05T11:47:05.134Z,15.75
2022-11-05T11:49:45.630Z,17.70
2022-11-05T11:52:30.818Z,15.38
2022-11-05T11:55:13.005Z,14.93
2022-11-05T11:57:52.005Z,14.95
2022-11-05T12:00:21.999Z,15.13
2022-11-05T12:03:41.552Z,14.27
2022-11-05T12:06:14.223Z,13.57
2022-11-05T12:08:58.132Z,14.05
2022-11-05T12:12:06.044Z,15.40
2022-11-05T12:14:56.462Z,14.48
2022-11-05T12:17:50.219Z,14.20
2022-11-05T12:20:31.128Z,14.30
2022-11-05T12:23:38.974Z,13.85
2022-11-05T12:26:20.697Z,14.57
2022-11-05T12:29:18.585Z,15.43
2022-11-05T12:31:48.683Z,13.77
2022-11-05T12:34:37.308Z,13.05
2022-11-05T12:37:28.988Z,12.45
2022-11-05T12:40:32.892Z,13.52
2022-11-05T12:43:38.278Z,12.02
2022-11-05T12:46:23.651Z,11.63
2022-11-05T12:48:56.460Z,12.95
2022-11-05T12:51:41.241Z,13.95
2022-11-05T12:54:16.420Z,14.90
2022-11-05T12:56:50.898Z,13.23
2022-11-05T12:59:20.474Z,13.35
2022-11-05T13:01:53.866Z,13.85
2022-11-05T13:04:40.462Z,13.75
2022-11-05T13:07:11.801Z,14.18
2022-11-05T13:09:57.290Z,13.93
2022-11-05T13:12:27.763Z,14.13
2022-11-05T13:15:02.211Z,12.23
2022-11-05T13:17:48.945Z,13.88
2022-11-05T13:20:21.418Z,14.73
2022-11-05T13:23:07.275Z,13.82
2022-11-05T13:25:40.775Z,15.35
2022-11-05T13:28:33.622Z,15.27
2022-11-05T13:31:03.556Z,15.35
2022-11-05T13:33:45.652Z,15.70
2022-11-05T13:36:32.916Z,15.27
2022-11-05T13:39:19.646Z,16.67
2022-11-05T13:42:01.605Z,15.63
2022-11-05T13:44:59.602Z,14.88
2022-11-05T13:47:57.440Z,13.45
2022-11-05T13:50:27.218Z,15.20
2022-11-05T13:53:09.174Z,14.40
2022-11-05T13:56:00.687Z,15.45
2022-11-05T13:58:53.811Z,13.70
2022-11-05T14:01:35.580Z,14.23
2022-11-05T14:04:03.689Z,15.25
2022-11-05T14:06:34.848Z,16.15
2022-11-05T14:09:11.175Z,15.82
2022-11-05T14:11:42.699Z,14.93
2022-11-05T14:14:22.645Z,16.23
2022-11-05T14:16:55.355Z,17.08
2022-11-05T14:19:33.505Z,16.67
2022-11-05T14:22:20.557Z,18.40
2022-11-05T14:24:48.042Z,16.23
2022-11-05T14:27:15.038Z,16.08
2022-11-05T14:29:44.065Z,17.60
2022-11-05T14:32:17.099Z,18.10
2022-11-05T14:35:13.124Z,17.70
2022-11-05T14:37:42.180Z,18.83
2022-11-05T14:40:36.456Z,18.08
2022-11-05T14:43:05.656Z,19.38
2022-11-05T14:45:37.073Z,18.95
2022-11-05T14:48:07.460Z,19.20
2022-11-05T14:50:41.316Z,19.25
2022-11-05T14:53:25.383Z,19.45
2022-11-05T14:56:17.443Z,19.40
2022-11-05T14:58:46.155Z,19.95
2022-11-05T15:01:15.934Z,19.42
2022-11-05T15:03:46.528Z,21.40
2022-11-05T15:06:31.338Z,18.70
2022-11-05T15:09:25.705Z,19.95
2022-11-05T15:12:02.822Z,21.38
2022-11-05T15:14:42.343Z,21.55
2022-11-05T15:17:22.160Z,20.73
2022-11-05T15:19:50.769Z,21.60
2022-11-05T15:22:30.932Z,21.25
2022-11-05T15:24:58.467Z,21.40
2022-11-05T15:27:48.443Z,22.25
2022-11-05T15:30:21.178Z,22.83
2022-11-05T15:32:48.389Z,22.58
2022-11-05T15:35:27.101Z,21.42
2022-11-05T15:38:01.834Z,21.85
2022-11-05T15:40:33.162Z,22.25
2022-11-05T15:43:17.806Z,23.17
2022-11-05T15:45:57.164Z,23.57
2022-11-05T15:48:24.047Z,22.35
2022-11-05T15:50:51.368Z,24.02
2022-11-05T15:53:47.520Z,22.73
2022-11-05T15:56:28.601Z,22.58
2022-11-05T15:59:04.126Z,23.67
2022-11-05T16:01:37.184Z,23.35
2022-11-05T16:04:16.413Z,25.25
2022-11-05T16:06:47.332Z,23.05
2022-11-05T16:09:26.217Z,26.60
2022-11-05T16:12:20.847Z,24.52
2022-11-05T16:14:59.916Z,25.38
2022-11-05T16:17:31.435Z,25.08
2022-11-05T16:19:58.798Z,25.33
2022-11-05T16:22:26.451Z,25.25
2022-11-05T16:24:53.320Z,27.20
2022-11-05T16:27:22.214Z,24.88
2022-11-05T16:29:54.660Z,24.65
2022-11-05T16:32:31.105Z,24.92
2022-11-05T16:35:04.353Z,25.98
2022-11-05T16:37:40.088Z,25.50
2022-11-05T16:40:14.632Z,24.27
2022-11-05T16:42:42.488Z,26.45
2022-11-05T16:45:14.860Z,26.15
2022-11-05T16:47:43.309Z,25.90
2022-11-05T16:50:26.777Z,27.10
2022-11-05T16:52:53.864Z,27.48
2022-11-05T16:55:21.154Z,27.10
2022-11-05T16:57:52.101Z,26.42
2022-11-05T17:00:20.680Z,27.83
2022-11-05T17:02:48.157Z,24.98
2022-11-05T17:05:19.946Z,26.20
2022-11-05T17:07:47.343Z,25.90
2022-11-05T17:10:14.719Z,25.20
2022-11-05T17:12:42.751Z,25.70
2022-11-05T17:15:15.684Z,24.55
2022-11-05T17:17:42.535Z,30.10
2022-11-05T17:20:19.547Z,30.10
2022-11-05T17:22:46.486Z,32.15
2022-11-05T17:25:13.282Z,31.20
2022-11-05T17:27:40.152Z,30.40
2022-11-05T17:30:07.916Z,28.95
2022-11-05T17:32:34.754Z,30.52
2022-11-05T17:35:01.744Z,30.65
2022-11-05T17:37:28.667Z,31.27
2022-11-05T17:39:55.636Z,30.15
2022-11-05T17:42:22.543Z,30.27
2022-11-05T17:44:49.478Z,29.40
2022-11-05T17:47:16.375Z,30.33
2022-11-05T17:49:43.200Z,31.58
2022-11-05T17:52:10.660Z,32.63
2022-11-05T17:54:37.679Z,32.30
2022-11-05T17:57:05.644Z,32.33
2022-11-05T17:59:32.918Z,33.95
2022-11-05T18:02:00.057Z,35.30
2022-11-05T18:04:27.092Z,32.33
2022-11-05T18:07:55.682Z,33.13
2022-11-05T18:10:23.052Z,33.35
2022-11-05T18:12:54.480Z,33.42
2022-11-05T18:15:21.873Z,33.67
2022-11-05T18:17:49.154Z,35.42
2022-11-05T18:20:19.359Z,35.72
2022-11-05T18:22:49.764Z,37.70
2022-11-05T18:25:17.990Z,45.45
2022-11-05T18:27:45.332Z,56.78
2022-11-05T18:30:15.670Z,56.13
2022-11-05T18:32:44.071Z,49.15
2022-11-05T18:35:12.122Z,53.80
2022-11-05T18:37:39.441Z,43.20
2022-11-05T18:40:10.755Z,39.45
2022-11-05T18:42:38.212Z,36.63
2022-11-05T18:45:08.881Z,38.80
2022-11-05T18:47:36.234Z,38.33
2022-11-05T18:50:40.241Z,38.00
2022-11-05T18:53:09.263Z,37.20
2022-11-05T18:55:39.303Z,38.55
2022-11-05T18:58:06.315Z,38.50
2022-11-05T19:00:33.274Z,38.65
2022-11-05T19:03:00.527Z,37.20
2022-11-05T19:05:29.450Z,36.63
2022-11-05T19:07:56.951Z,37.20
2022-11-05T19:11:00.191Z,37.08
2022-11-05T19:13:27.182Z,38.38
2022-11-05T19:15:58.139Z,35.15
2022-11-05T19:18:25.284Z,34.63
2022-11-05T19:20:58.351Z,37.97
2022-11-05T19:23:25.534Z,35.55
2022-11-05T19:27:22.564Z,36.97
2022-11-05T19:30:00.890Z,37.83
2022-11-05T19:32:27.846Z,39.22
2022-11-05T19:34:55.035Z,37.80
2022-11-05T19:37:25.894Z,34.15
2022-11-05T19:39:55.366Z,34.10
2022-11-05T19:42:22.384Z,34.53
2022-11-05T19:44:49.301Z,37.40
2022-11-05T19:47:16.201Z,36.03
2022-11-05T19:49:43.253Z,32.90
2022-11-05T19:52:10.297Z,35.25
2022-11-05T19:54:37.565Z,33.10
2022-11-05T19:57:06.435Z,35.10
2022-11-05T20:00:07.259Z,32.08
2022-11-05T20:02:37.602Z,31.90
2022-11-05T20:05:05.027Z,33.80
2022-11-05T20:07:31.962Z,33.85
2022-11-05T20:09:58.833Z,36.90
2022-11-05T20:12:25.864Z,40.90
2022-11-05T20:14:52.756Z,41.53
2022-11-05T20:17:23.605Z,40.25
2022-11-05T20:19:51.004Z,43.85
2022-11-05T20:22:17.962Z,42.78
2022-11-05T20:24:45.232Z,44.55
2022-11-05T20:27:12.155Z,43.53
2022-11-05T20:29:39.209Z,41.22
2022-11-05T20:32:07.903Z,39.80
2022-11-05T20:34:35.183Z,42.42
2022-11-05T20:37:02.560Z,46.58
2022-11-05T20:39:30.043Z,44.58
2022-11-05T20:41:57.248Z,43.38
2022-11-05T20:44:27.110Z,45.25
2022-11-05T20:46:57.926Z,41.05
2022-11-05T20:49:25.865Z,39.65
2022-11-05T20:51:53.462Z,40.42
2022-11-05T20:54:20.704Z,39.45
2022-11-05T20:56:47.847Z,39.78
2022-11-05T20:59:14.977Z,38.35
2022-11-05T21:01:41.968Z,33.15
2022-11-05T21:04:09.095Z,37.20
2022-11-05T21:06:36.176Z,38.30
2022-11-05T21:09:06.082Z,41.50
2022-11-05T21:11:54.935Z,36.90
2022-11-05T21:14:21.941Z,34.13
2022-11-05T21:16:48.858Z,38.58
2022-11-05T21:19:15.991Z,40.47
2022-11-05T21:21:42.887Z,41.53
2022-11-05T21:24:09.793Z,40.70
2022-11-05T21:26:37.031Z,41.35
2022-11-05T21:29:04.080Z,39.45
2022-11-05T21:31:30.994Z,44.80
2022-11-05T21:34:00.971Z,49.50
2022-11-05T21:36:27.889Z,48.15
2022-11-05T21:38:55.096Z,46.40
2022-11-05T21:41:27.875Z,44.22
2022-11-05T21:43:54.944Z,42.42
2022-11-05T21:46:21.848Z,39.10
2022-11-05T21:48:58.591Z,39.42
2022-11-05T21:51:44.229Z,38.90
2022-11-05T21:54:30.173Z,37.63
2022-11-05T21:57:27.022Z,36.72
2022-11-05T21:59:57.724Z,42.65
2022-11-05T22:02:28.474Z,39.33
2022-11-05T22:04:57.752Z,39.38
2022-11-05T22:07:36.539Z,41.70
2022-11-05T22:10:19.919Z,39.08
2022-11-05T22:12:47.064Z,33.33
2022-11-05T22:15:15.857Z,33.88
2022-11-05T22:17:47.204Z,39.50
2022-11-05T22:20:15.054Z,39.67
2022-11-05T22:22:42.136Z,37.30
2022-11-05T22:25:18.172Z,39.00
2022-11-05T22:28:05.260Z,36.70
2022-11-05T22:30:39.645Z,35.85
2022-11-05T22:33:12.194Z,37.60
2022-11-05T22:35:46.763Z,36.50
2022-11-05T22:38:19.774Z,35.53
2022-11-05T22:40:58.916Z,35.92
2022-11-05T22:43:39.129Z,34.50
2022-11-05T22:46:28.605Z,36.42
2022-11-05T22:49:32.957Z,37.75
2022-11-05T22:52:09.909Z,38.10
2022-11-05T22:55:13.833Z,38.13
2022-11-05T22:57:41.079Z,37.65
2022-11-05T23:00:15.377Z,36.78
2022-11-05T23:02:42.778Z,37.93
2022-11-05T23:05:10.539Z,40.70
2022-11-05T23:08:00.404Z,38.15
2022-11-05T23:10:45.825Z,41.65
2022-11-05T23:13:23.986Z,46.22
2022-11-05T23:16:12.592Z,42.40
2022-11-05T23:18:58.199Z,44.95
2022-11-05T23:24:12.670Z,42.63
2022-11-05T23:26:52.235Z,44.55
2022-11-05T23:29:24.057Z,44.78
2022-11-05T23:32:10.594Z,47.30
2022-11-05T23:34:38.370Z,46.25
2022-11-05T23:37:24.311Z,44.28
2022-11-05T23:39:51.656Z,43.75
2022-11-05T23:42:38.864Z,41.42
2022-11-05T23:45:42.766Z,42.15
2022-11-05T23:48:26.763Z,45.85
2022-11-05T23:51:14.095Z,44.97
2022-11-05T23:53:44.222Z,46.05
2022-11-05T23:56:15.487Z,39.70
2022-11-05T23:58:43.229Z,28.88
